createdAt,value
2018-02-23T00:00:35.384Z,1004.14
2018-02-23T00:01:16.054Z,1004.06
2018-02-23T00:01:56.502Z,1004
2018-02-23T00:02:37.114Z,1004.05
2018-02-23T00:03:17.631Z,1004.2
2018-02-23T00:03:58.148Z,1004.03
2018-02-23T00:04:38.689Z,1004.09
2018-02-23T00:05:19.188Z,1004.1
2018-02-23T00:05:59.738Z,1004.1
2018-02-23T00:06:40.291Z,1004.13
2018-02-23T00:07:20.807Z,1004.03
2018-02-23T00:08:01.352Z,1004.08
2018-02-23T00:08:42.091Z,1004.05
2018-02-23T00:09:22.597Z,1004.39
2018-02-23T00:10:03.150Z,1004.14
2018-02-23T00:10:43.682Z,1004.18
2018-02-23T00:11:24.238Z,1003.97
2018-02-23T00:12:04.781Z,1004.02
2018-02-23T00:12:45.349Z,1004.03
2018-02-23T00:13:25.923Z,1004.05
2018-02-23T00:14:06.496Z,1004.02
2018-02-23T00:14:47.033Z,1004.05
2018-02-23T00:15:27.633Z,1004.09
2018-02-23T00:16:08.181Z,1004.02
2018-02-23T00:16:48.675Z,1004.06
2018-02-23T00:17:29.211Z,1004.12
2018-02-23T00:18:09.803Z,1004.03
2018-02-23T00:18:50.311Z,1004.11
2018-02-23T00:19:30.869Z,1004.06
2018-02-23T00:20:11.436Z,1004.03
2018-02-23T00:20:51.962Z,1004.02
2018-02-23T00:21:32.511Z,1003.99
2018-02-23T00:22:13.075Z,1003.99
2018-02-23T00:22:53.636Z,1004
2018-02-23T00:23:34.195Z,1004.04
2018-02-23T00:24:14.741Z,1003.97
2018-02-23T00:24:55.275Z,1004
2018-02-23T00:25:35.822Z,1004.07
2018-02-23T00:26:16.348Z,1003.86
2018-02-23T00:26:56.885Z,1004
2018-02-23T00:27:37.570Z,1003.98
2018-02-23T00:28:18.103Z,1004.01
2018-02-23T00:28:58.666Z,1004.12
2018-02-23T00:29:39.213Z,1004.04
2018-02-23T00:30:19.763Z,1003.95
2018-02-23T00:31:00.297Z,1004
2018-02-23T00:31:40.858Z,1003.95
2018-02-23T00:32:21.400Z,1004.07
2018-02-23T00:33:01.945Z,1004.09
2018-02-23T00:33:42.488Z,1003.98
2018-02-23T00:34:23.076Z,1004.04
2018-02-23T00:35:03.594Z,1003.97
2018-02-23T00:35:44.144Z,1004
2018-02-23T00:36:24.719Z,1004.06
2018-02-23T00:37:05.260Z,1004
2018-02-23T00:37:45.827Z,1004.1
2018-02-23T00:38:26.386Z,1004.06
2018-02-23T00:39:06.942Z,1004
2018-02-23T00:39:47.497Z,1004.07
2018-02-23T00:40:28.138Z,1004.01
2018-02-23T00:41:08.647Z,1003.97
2018-02-23T00:41:49.270Z,1004.03
2018-02-23T00:42:29.829Z,1004.03
2018-02-23T00:43:10.381Z,1003.96
2018-02-23T00:43:50.910Z,1004.13
2018-02-23T00:44:31.465Z,1003.97
2018-02-23T00:45:12.032Z,1003.9
2018-02-23T00:45:52.599Z,1004.09
2018-02-23T00:46:33.157Z,1004.01
2018-02-23T00:47:13.725Z,1003.94
2018-02-23T00:47:54.312Z,1004.01
2018-02-23T00:48:34.890Z,1003.95
2018-02-23T00:49:15.436Z,1003.96
2018-02-23T00:49:55.957Z,1004.09
2018-02-23T00:50:36.526Z,1003.97
2018-02-23T00:51:17.070Z,1003.95
2018-02-23T00:51:57.623Z,1004.03
2018-02-23T00:52:38.139Z,1004
2018-02-23T00:53:18.715Z,1004.02
2018-02-23T00:53:59.268Z,1003.97
2018-02-23T00:54:39.879Z,1004
2018-02-23T00:55:20.438Z,1004.05
2018-02-23T00:56:00.919Z,1004.04
2018-02-23T00:56:41.500Z,1003.99
2018-02-23T00:57:22.657Z,1004
2018-02-23T00:58:02.648Z,1003.96
2018-02-23T00:58:43.207Z,1003.96
2018-02-23T00:59:23.722Z,1004.07
2018-02-23T01:00:04.291Z,1004.06
2018-02-23T01:00:44.850Z,1004.06
2018-02-23T01:01:25.369Z,1003.96
2018-02-23T01:02:05.925Z,1004.06
2018-02-23T01:02:46.533Z,1004.02
2018-02-23T01:03:27.096Z,1004.01
2018-02-23T01:04:07.639Z,1004.08
2018-02-23T01:04:48.228Z,1004.04
2018-02-23T01:05:28.856Z,1004.02
2018-02-23T01:06:09.368Z,1003.91
2018-02-23T01:06:49.909Z,1003.91
2018-02-23T01:07:30.432Z,1004.11
2018-02-23T01:08:10.991Z,1004.05
2018-02-23T01:08:51.567Z,1003.96
2018-02-23T01:09:32.050Z,1003.97
2018-02-23T01:10:12.595Z,1004.02
2018-02-23T01:10:53.150Z,1004.07
2018-02-23T01:11:33.721Z,1004.03
2018-02-23T01:12:14.283Z,1004.06
2018-02-23T01:12:54.835Z,1004
2018-02-23T01:13:35.639Z,1004.13
2018-02-23T01:14:16.236Z,1004.12
2018-02-23T01:14:56.821Z,1004.04
2018-02-23T01:15:37.369Z,1004.07
2018-02-23T01:16:17.903Z,1004.18
2018-02-23T01:16:58.476Z,1004.07
2018-02-23T01:17:38.994Z,1004.11
2018-02-23T01:18:19.539Z,1004.14
2018-02-23T01:19:00.093Z,1004.14
2018-02-23T01:19:40.672Z,1004.22
2018-02-23T01:20:21.235Z,1004.19
2018-02-23T01:21:02.673Z,1004.08
2018-02-23T01:21:43.239Z,1004.02
2018-02-23T01:22:23.802Z,1003.99
2018-02-23T01:23:04.363Z,1003.96
2018-02-23T01:23:44.911Z,1004
2018-02-23T01:24:25.468Z,1003.99
2018-02-23T01:25:06.020Z,1004.01
2018-02-23T01:25:46.588Z,1003.9
2018-02-23T01:26:27.162Z,1003.97
2018-02-23T01:27:07.744Z,1003.97
2018-02-23T01:27:48.319Z,1003.89
2018-02-23T01:28:28.839Z,1003.9
2018-02-23T01:29:09.376Z,1003.94
2018-02-23T01:29:49.909Z,1003.9
2018-02-23T01:30:30.464Z,1003.96
2018-02-23T01:31:11.028Z,1003.94
2018-02-23T01:31:51.576Z,1003.92
2018-02-23T01:32:32.148Z,1003.95
2018-02-23T01:33:12.882Z,1003.88
2018-02-23T01:33:53.447Z,1003.86
2018-02-23T01:34:33.949Z,1003.84
2018-02-23T01:35:14.508Z,1003.75
2018-02-23T01:35:55.055Z,1003.84
2018-02-23T01:36:35.596Z,1003.85
2018-02-23T01:37:16.134Z,1003.85
2018-02-23T01:37:56.691Z,1003.86
2018-02-23T01:38:37.236Z,1003.83
2018-02-23T01:39:17.796Z,1003.82
2018-02-23T01:39:58.467Z,1003.78
2018-02-23T01:40:39.046Z,1003.81
2018-02-23T01:41:19.521Z,1003.74
2018-02-23T01:42:00.040Z,1003.78
2018-02-23T01:42:40.568Z,1003.81
2018-02-23T01:43:21.117Z,1003.74
2018-02-23T01:44:01.681Z,1003.8
2018-02-23T01:44:42.234Z,1003.89
2018-02-23T01:45:22.790Z,1003.8
2018-02-23T01:46:03.443Z,1003.76
2018-02-23T01:46:44.142Z,1003.7
2018-02-23T01:47:24.672Z,1003.7
2018-02-23T01:48:05.233Z,1003.72
2018-02-23T01:48:45.770Z,1003.7
2018-02-23T01:49:26.337Z,1003.71
2018-02-23T01:50:06.884Z,1003.61
2018-02-23T01:50:47.431Z,1003.7
2018-02-23T01:51:27.990Z,1003.66
2018-02-23T01:52:08.644Z,1003.67
2018-02-23T01:52:49.199Z,1003.68
2018-02-23T01:53:29.832Z,1003.74
2018-02-23T01:54:10.396Z,1003.65
2018-02-23T01:54:51.009Z,1003.69
2018-02-23T01:55:31.519Z,1003.7
2018-02-23T01:56:12.174Z,1003.69
2018-02-23T01:56:52.679Z,1003.65
2018-02-23T01:57:33.238Z,1003.74
2018-02-23T01:58:13.783Z,1003.64
2018-02-23T01:58:54.646Z,1003.64
2018-02-23T01:59:35.159Z,1003.75
2018-02-23T02:00:15.711Z,1003.69
2018-02-23T02:00:56.274Z,1003.67
2018-02-23T02:01:36.834Z,1003.67
2018-02-23T02:02:18.243Z,1003.62
2018-02-23T02:02:58.999Z,1003.69
2018-02-23T02:03:39.446Z,1003.67
2018-02-23T02:04:20.025Z,1003.6
2018-02-23T02:05:00.580Z,1003.63
2018-02-23T02:05:41.125Z,1003.61
2018-02-23T02:06:21.677Z,1003.56
2018-02-23T02:07:02.231Z,1003.59
2018-02-23T02:07:42.832Z,1003.68
2018-02-23T02:08:23.341Z,1003.7
2018-02-23T02:09:03.962Z,1003.71
2018-02-23T02:09:44.458Z,1003.58
2018-02-23T02:10:25.008Z,1003.58
2018-02-23T02:11:05.545Z,1003.7
2018-02-23T02:11:46.084Z,1003.55
2018-02-23T02:12:26.649Z,1003.64
2018-02-23T02:13:07.206Z,1003.56
2018-02-23T02:13:47.762Z,1003.44
2018-02-23T02:14:28.326Z,1003.54
2018-02-23T02:15:08.884Z,1003.61
2018-02-23T02:15:49.434Z,1003.69
2018-02-23T02:16:30.097Z,1003.48
2018-02-23T02:17:10.592Z,1003.53
2018-02-23T02:17:51.151Z,1003.36
2018-02-23T02:18:31.715Z,1003.53
2018-02-23T02:19:12.264Z,1003.51
2018-02-23T02:19:52.828Z,1003.52
2018-02-23T02:20:33.391Z,1003.53
2018-02-23T02:21:13.953Z,1003.43
2018-02-23T02:21:54.532Z,1003.51
2018-02-23T02:22:35.213Z,1003.5
2018-02-23T02:23:15.751Z,1003.42
2018-02-23T02:23:56.306Z,1003.48
2018-02-23T02:24:36.870Z,1003.47
2018-02-23T02:25:17.429Z,1003.57
2018-02-23T02:25:58.009Z,1003.4
2018-02-23T02:26:38.569Z,1003.55
2018-02-23T02:27:19.125Z,1003.48
2018-02-23T02:27:59.690Z,1003.42
2018-02-23T02:28:40.435Z,1003.46
2018-02-23T02:29:20.818Z,1003.77
2018-02-23T02:30:01.374Z,1003.47
2018-02-23T02:30:41.947Z,1003.49
2018-02-23T02:31:22.515Z,1003.51
2018-02-23T02:32:03.086Z,1003.43
2018-02-23T02:32:43.639Z,1003.4
2018-02-23T02:33:24.196Z,1003.42
2018-02-23T02:34:04.754Z,1003.41
2018-02-23T02:34:45.315Z,1003.38
2018-02-23T02:35:25.896Z,1003.44
2018-02-23T02:36:06.452Z,1003.46
2018-02-23T02:36:47.000Z,1003.36
2018-02-23T02:37:27.559Z,1003.39
2018-02-23T02:38:08.122Z,1003.45
2018-02-23T02:38:48.692Z,1003.46
2018-02-23T02:39:29.245Z,1003.46
2018-02-23T02:40:09.943Z,1003.4
2018-02-23T02:40:50.417Z,1003.46
2018-02-23T02:41:30.972Z,1003.45
2018-02-23T02:42:11.499Z,1003.44
2018-02-23T02:42:52.059Z,1003.38
2018-02-23T02:43:32.603Z,1003.4
2018-02-23T02:44:13.177Z,1003.42
2018-02-23T02:44:53.754Z,1003.4
2018-02-23T02:45:34.329Z,1003.44
2018-02-23T02:46:14.894Z,1003.4
2018-02-23T02:46:55.578Z,1003.35
2018-02-23T02:47:36.167Z,1003.42
2018-02-23T02:48:16.714Z,1003.36
2018-02-23T02:48:57.251Z,1003.42
2018-02-23T02:49:37.802Z,1003.46
2018-02-23T02:50:18.372Z,1003.39
2018-02-23T02:50:58.911Z,1003.35
2018-02-23T02:51:39.464Z,1003.4
2018-02-23T02:52:20.114Z,1003.41
2018-02-23T02:53:00.926Z,1003.48
2018-02-23T02:53:41.513Z,1003.48
2018-02-23T02:54:22.075Z,1003.36
2018-02-23T02:55:02.618Z,1003.43
2018-02-23T02:55:43.159Z,1003.36
2018-02-23T02:56:23.727Z,1003.44
2018-02-23T02:57:04.290Z,1003.47
2018-02-23T02:57:44.856Z,1003.48
2018-02-23T02:58:25.636Z,1003.51
2018-02-23T02:59:06.200Z,1003.48
2018-02-23T02:59:46.752Z,1003.51
2018-02-23T03:00:27.323Z,1003.53
2018-02-23T03:01:07.864Z,1003.56
2018-02-23T03:01:48.431Z,1003.5
2018-02-23T03:02:28.984Z,1003.53
2018-02-23T03:03:09.529Z,1003.58
2018-02-23T03:03:50.259Z,1003.64
2018-02-23T03:04:30.868Z,1003.46
2018-02-23T03:05:11.407Z,1003.48
2018-02-23T03:05:51.938Z,1003.52
2018-02-23T03:06:32.516Z,1003.59
2018-02-23T03:07:13.049Z,1003.5
2018-02-23T03:07:53.726Z,1003.57
2018-02-23T03:08:34.287Z,1003.4
2018-02-23T03:09:14.837Z,1003.53
2018-02-23T03:09:55.459Z,1003.52
2018-02-23T03:10:36.142Z,1003.47
2018-02-23T03:11:16.686Z,1003.47
2018-02-23T03:11:57.230Z,1003.47
2018-02-23T03:12:37.784Z,1003.55
2018-02-23T03:13:18.355Z,1003.56
2018-02-23T03:13:58.889Z,1003.46
2018-02-23T03:14:39.440Z,1003.52
2018-02-23T03:15:20.017Z,1003.58
2018-02-23T03:16:00.670Z,1003.43
2018-02-23T03:16:41.538Z,1003.49
2018-02-23T03:17:22.093Z,1003.59
2018-02-23T03:18:02.639Z,1003.38
2018-02-23T03:18:43.162Z,1003.53
2018-02-23T03:21:12.541Z,1003.46
2018-02-23T03:21:53.098Z,1003.54
2018-02-23T03:22:33.644Z,1003.54
2018-02-23T03:23:14.209Z,1003.56
2018-02-23T03:23:54.754Z,1003.48
2018-02-23T03:24:35.286Z,1003.5
2018-02-23T03:25:15.844Z,1003.43
2018-02-23T03:25:56.378Z,1003.51
2018-02-23T03:26:36.936Z,1003.43
2018-02-23T03:27:17.496Z,1003.52
2018-02-23T03:27:58.059Z,1003.66
2018-02-23T03:28:38.612Z,1003.55
2018-02-23T03:29:19.156Z,1003.61
2018-02-23T03:29:59.683Z,1003.53
2018-02-23T03:30:40.256Z,1003.4
2018-02-23T03:31:21.738Z,1003.57
2018-02-23T03:32:02.290Z,1003.4
2018-02-23T03:32:42.875Z,1003.45
2018-02-23T03:33:23.433Z,1003.46
2018-02-23T03:34:03.979Z,1003.52
2018-02-23T03:34:44.537Z,1003.62
2018-02-23T03:35:25.112Z,1003.56
2018-02-23T03:36:05.667Z,1003.46
2018-02-23T03:36:46.206Z,1003.47
2018-02-23T03:37:26.804Z,1003.45
2018-02-23T03:38:07.348Z,1003.49
2018-02-23T03:38:47.894Z,1003.44
2018-02-23T03:39:28.466Z,1003.33
2018-02-23T03:40:09.016Z,1003.54
2018-02-23T03:40:49.540Z,1003.45
2018-02-23T03:41:30.107Z,1003.46
2018-02-23T03:42:10.642Z,1003.59
2018-02-23T03:42:51.173Z,1003.51
2018-02-23T03:43:31.722Z,1003.52
2018-02-23T03:44:12.284Z,1003.6
2018-02-23T03:44:52.834Z,1003.47
2018-02-23T03:45:33.373Z,1003.46
2018-02-23T03:46:13.918Z,1003.51
2018-02-23T03:46:54.475Z,1003.43
2018-02-23T03:47:35.042Z,1003.52
2018-02-23T03:48:15.613Z,1003.43
2018-02-23T03:48:56.135Z,1003.46
2018-02-23T03:49:36.980Z,1003.51
2018-02-23T03:50:17.544Z,1003.42
2018-02-23T03:50:58.105Z,1003.44
2018-02-23T03:51:38.665Z,1003.41
2018-02-23T03:52:19.196Z,1003.47
2018-02-23T03:52:59.743Z,1003.42
2018-02-23T03:53:40.287Z,1003.52
2018-02-23T03:54:21.068Z,1003.45
2018-02-23T03:55:01.619Z,1003.51
2018-02-23T03:55:42.160Z,1003.48
2018-02-23T03:56:23.310Z,1003.47
2018-02-23T03:57:03.278Z,1003.52
2018-02-23T03:57:43.831Z,1003.48
2018-02-23T03:58:24.376Z,1003.54
2018-02-23T03:59:04.912Z,1003.51
2018-02-23T03:59:45.466Z,1003.49
2018-02-23T04:00:26.000Z,1003.49
2018-02-23T04:01:06.556Z,1003.51
2018-02-23T04:01:47.125Z,1003.54
2018-02-23T04:02:27.685Z,1003.54
2018-02-23T04:03:08.254Z,1003.66
2018-02-23T04:03:48.796Z,1003.6
2018-02-23T04:04:29.502Z,1003.58
2018-02-23T04:05:10.100Z,1003.53
2018-02-23T04:05:50.614Z,1003.48
2018-02-23T04:06:31.203Z,1003.52
2018-02-23T04:07:11.744Z,1003.6
2018-02-23T04:07:52.270Z,1003.55
2018-02-23T04:08:32.834Z,1003.49
2018-02-23T04:09:13.385Z,1003.55
2018-02-23T04:09:53.941Z,1003.56
2018-02-23T04:10:34.490Z,1003.54
2018-02-23T04:11:15.045Z,1003.52
2018-02-23T04:11:55.581Z,1003.57
2018-02-23T04:12:36.134Z,1003.54
2018-02-23T04:13:16.749Z,1003.64
2018-02-23T04:13:57.279Z,1003.68
2018-02-23T04:14:37.859Z,1003.62
2018-02-23T04:15:18.409Z,1003.76
2018-02-23T04:15:58.954Z,1003.68
2018-02-23T04:16:39.477Z,1003.54
2018-02-23T04:17:20.026Z,1003.62
2018-02-23T04:18:00.574Z,1003.64
2018-02-23T04:18:41.128Z,1003.63
2018-02-23T04:19:21.678Z,1003.77
2018-02-23T04:20:02.209Z,1003.67
2018-02-23T04:20:42.781Z,1003.67
2018-02-23T04:21:23.305Z,1003.62
2018-02-23T04:22:03.866Z,1003.64
2018-02-23T04:22:44.410Z,1003.7
2018-02-23T04:23:24.962Z,1003.75
2018-02-23T04:24:05.520Z,1003.58
2018-02-23T04:24:46.095Z,1003.74
2018-02-23T04:25:26.621Z,1003.77
2018-02-23T04:26:07.168Z,1003.72
2018-02-23T04:26:47.727Z,1003.67
2018-02-23T04:27:28.284Z,1003.73
2018-02-23T04:28:08.833Z,1003.74
2018-02-23T04:28:49.375Z,1003.68
2018-02-23T04:29:29.998Z,1003.66
2018-02-23T04:30:10.598Z,1003.61
2018-02-23T04:30:51.137Z,1003.61
2018-02-23T04:31:31.682Z,1003.6
2018-02-23T04:32:12.236Z,1003.65
2018-02-23T04:32:52.796Z,1003.64
2018-02-23T04:33:33.359Z,1003.63
2018-02-23T04:34:13.883Z,1003.61
2018-02-23T04:34:54.451Z,1003.66
2018-02-23T04:35:35.000Z,1003.63
2018-02-23T04:36:15.550Z,1003.6
2018-02-23T04:36:56.108Z,1003.61
2018-02-23T04:37:36.652Z,1003.55
2018-02-23T04:38:17.838Z,1003.56
2018-02-23T04:38:58.416Z,1003.55
2018-02-23T04:39:38.955Z,1003.57
2018-02-23T04:40:19.498Z,1003.53
2018-02-23T04:41:00.032Z,1003.46
2018-02-23T04:41:40.611Z,1003.48
2018-02-23T04:42:21.152Z,1003.53
2018-02-23T04:43:01.718Z,1003.58
2018-02-23T04:43:42.264Z,1003.55
2018-02-23T04:44:22.816Z,1003.55
2018-02-23T04:45:03.404Z,1003.48
2018-02-23T04:45:43.956Z,1003.54
2018-02-23T04:46:24.528Z,1003.49
2018-02-23T04:47:05.055Z,1003.56
2018-02-23T04:47:45.628Z,1003.5
2018-02-23T04:48:26.173Z,1003.59
2018-02-23T04:49:06.723Z,1003.68
2018-02-23T04:49:47.279Z,1003.53
2018-02-23T04:50:27.843Z,1003.47
2018-02-23T04:51:08.380Z,1003.46
2018-02-23T04:51:48.939Z,1003.47
2018-02-23T04:52:29.471Z,1003.48
2018-02-23T04:53:10.029Z,1003.48
2018-02-23T04:53:50.594Z,1003.54
2018-02-23T04:54:31.133Z,1003.57
2018-02-23T04:55:11.682Z,1003.56
2018-02-23T04:55:52.239Z,1003.78
2018-02-23T04:56:32.797Z,1003.55
2018-02-23T04:57:13.351Z,1003.52
2018-02-23T04:57:53.954Z,1003.52
2018-02-23T04:58:34.494Z,1003.51
2018-02-23T04:59:15.052Z,1003.53
2018-02-23T04:59:55.605Z,1003.54
2018-02-23T05:00:36.164Z,1003.57
2018-02-23T05:01:16.720Z,1003.5
2018-02-23T05:01:57.267Z,1003.52
2018-02-23T05:02:37.817Z,1003.53
2018-02-23T05:03:18.377Z,1003.5
2018-02-23T05:03:58.912Z,1003.54
2018-02-23T05:04:39.481Z,1003.47
2018-02-23T05:05:20.035Z,1003.58
2018-02-23T05:06:00.603Z,1003.48
2018-02-23T05:06:41.156Z,1003.55
2018-02-23T05:07:21.716Z,1003.56
2018-02-23T05:08:02.278Z,1003.53
2018-02-23T05:08:42.840Z,1003.53
2018-02-23T05:09:23.374Z,1003.51
2018-02-23T05:10:03.933Z,1003.46
2018-02-23T05:10:44.545Z,1003.47
2018-02-23T05:11:25.056Z,1003.52
2018-02-23T05:12:05.592Z,1003.77
2018-02-23T05:12:46.140Z,1003.58
2018-02-23T05:13:26.678Z,1003.56
2018-02-23T05:14:07.232Z,1003.5
2018-02-23T05:14:47.778Z,1003.51
2018-02-23T05:15:28.532Z,1003.53
2018-02-23T05:16:09.083Z,1003.5
2018-02-23T05:16:49.632Z,1003.7
2018-02-23T05:17:30.217Z,1003.52
2018-02-23T05:18:10.797Z,1003.54
2018-02-23T05:18:51.353Z,1003.58
2018-02-23T05:19:31.889Z,1003.58
2018-02-23T05:20:12.447Z,1003.57
2018-02-23T05:20:53.007Z,1003.55
2018-02-23T05:21:33.569Z,1003.51
2018-02-23T05:22:14.120Z,1003.59
2018-02-23T05:22:54.663Z,1003.67
2018-02-23T05:23:35.222Z,1003.57
2018-02-23T05:24:15.833Z,1003.61
2018-02-23T05:24:56.388Z,1003.62
2018-02-23T05:25:36.937Z,1003.64
2018-02-23T05:26:17.486Z,1003.58
2018-02-23T05:26:58.008Z,1003.64
2018-02-23T05:27:38.569Z,1003.59
2018-02-23T05:28:19.123Z,1003.62
2018-02-23T05:28:59.719Z,1003.68
2018-02-23T05:29:40.252Z,1003.55
2018-02-23T05:30:20.799Z,1003.53
2018-02-23T05:31:01.351Z,1003.59
2018-02-23T05:31:41.934Z,1003.61
2018-02-23T05:32:22.478Z,1003.76
2018-02-23T05:33:03.039Z,1003.6
2018-02-23T05:33:43.573Z,1003.57
2018-02-23T05:34:24.142Z,1003.55
2018-02-23T05:35:04.696Z,1003.58
2018-02-23T05:35:45.252Z,1003.59
2018-02-23T05:36:25.830Z,1003.61
2018-02-23T05:37:06.337Z,1003.57
2018-02-23T05:37:46.894Z,1003.68
2018-02-23T05:38:27.445Z,1003.7
2018-02-23T05:39:08.012Z,1003.64
2018-02-23T05:39:48.576Z,1003.61
2018-02-23T05:40:29.141Z,1003.58
2018-02-23T05:41:09.719Z,1003.71
2018-02-23T05:41:50.275Z,1003.66
2018-02-23T05:42:30.820Z,1003.66
2018-02-23T05:43:11.369Z,1003.66
2018-02-23T05:43:51.949Z,1003.66
2018-02-23T05:44:32.506Z,1003.66
2018-02-23T05:45:13.070Z,1003.62
2018-02-23T05:45:53.626Z,1003.67
2018-02-23T05:46:34.188Z,1003.67
2018-02-23T05:47:14.743Z,1003.53
2018-02-23T05:47:55.301Z,1003.56
2018-02-23T05:48:35.889Z,1003.58
2018-02-23T05:49:16.442Z,1003.58
2018-02-23T05:49:56.997Z,1003.64
2018-02-23T05:50:37.550Z,1003.73
2018-02-23T05:51:18.096Z,1003.71
2018-02-23T05:51:58.646Z,1003.65
2018-02-23T05:52:39.248Z,1003.64
2018-02-23T05:53:19.803Z,1003.7
2018-02-23T05:54:00.358Z,1003.7
2018-02-23T05:54:40.940Z,1003.72
2018-02-23T05:55:21.493Z,1003.75
2018-02-23T05:56:02.051Z,1003.7
2018-02-23T05:56:42.608Z,1003.67
2018-02-23T05:57:23.180Z,1003.68
2018-02-23T05:58:03.748Z,1003.68
2018-02-23T05:58:44.298Z,1003.66
2018-02-23T05:59:24.853Z,1003.71
2018-02-23T06:00:05.407Z,1003.75
2018-02-23T06:00:45.977Z,1003.69
2018-02-23T06:01:26.543Z,1003.7
2018-02-23T06:02:07.095Z,1003.76
2018-02-23T06:02:47.649Z,1003.81
2018-02-23T06:03:28.205Z,1003.79
2018-02-23T06:04:08.756Z,1003.74
2018-02-23T06:04:49.322Z,1003.78
2018-02-23T06:05:29.878Z,1003.71
2018-02-23T06:06:10.448Z,1003.75
2018-02-23T06:06:51.020Z,1003.72
2018-02-23T06:07:31.611Z,1003.76
2018-02-23T06:08:12.186Z,1003.79
2018-02-23T06:08:52.729Z,1003.75
2018-02-23T06:09:33.301Z,1003.78
2018-02-23T06:10:13.859Z,1003.79
2018-02-23T06:10:54.404Z,1003.78
2018-02-23T06:11:34.967Z,1003.73
2018-02-23T06:12:15.558Z,1003.75
2018-02-23T06:12:56.126Z,1003.76
2018-02-23T06:13:36.681Z,1003.74
2018-02-23T06:14:17.244Z,1003.79
2018-02-23T06:14:57.807Z,1003.84
2018-02-23T06:15:38.360Z,1003.81
2018-02-23T06:16:18.919Z,1003.82
2018-02-23T06:16:59.473Z,1003.89
2018-02-23T06:17:40.036Z,1003.83
2018-02-23T06:18:20.590Z,1003.84
2018-02-23T06:19:01.158Z,1003.9
2018-02-23T06:19:41.701Z,1003.89
2018-02-23T06:20:22.279Z,1003.86
2018-02-23T06:21:02.839Z,1003.97
2018-02-23T06:21:43.397Z,1003.89
2018-02-23T06:22:23.953Z,1003.85
2018-02-23T06:23:04.534Z,1003.87
2018-02-23T06:23:45.102Z,1003.88
2018-02-23T06:24:25.661Z,1003.88
2018-02-23T06:25:06.235Z,1003.83
2018-02-23T06:25:46.791Z,1003.93
2018-02-23T06:26:27.353Z,1003.86
2018-02-23T06:27:07.930Z,1003.83
2018-02-23T06:27:48.477Z,1003.95
2018-02-23T06:28:29.058Z,1003.93
2018-02-23T06:29:09.675Z,1003.84
2018-02-23T06:29:50.248Z,1003.94
2018-02-23T06:30:30.798Z,1003.91
2018-02-23T06:31:11.359Z,1003.94
2018-02-23T06:31:51.929Z,1003.9
2018-02-23T06:32:32.490Z,1003.86
2018-02-23T06:33:13.033Z,1003.87
2018-02-23T06:33:53.587Z,1003.91
2018-02-23T06:34:34.153Z,1003.97
2018-02-23T06:35:14.697Z,1004.07
2018-02-23T06:35:55.274Z,1003.94
2018-02-23T06:36:35.833Z,1004.13
2018-02-23T06:37:16.387Z,1003.96
2018-02-23T06:37:56.951Z,1003.93
2018-02-23T06:38:37.507Z,1003.89
2018-02-23T06:39:18.057Z,1003.85
2018-02-23T06:39:58.614Z,1003.9
2018-02-23T06:40:39.189Z,1004.09
2018-02-23T06:41:19.746Z,1003.91
2018-02-23T06:42:00.293Z,1003.9
2018-02-23T06:42:40.872Z,1003.89
2018-02-23T06:43:21.460Z,1003.92
2018-02-23T06:44:02.007Z,1003.9
2018-02-23T06:44:42.615Z,1003.82
2018-02-23T06:45:23.118Z,1003.89
2018-02-23T06:46:03.678Z,1003.84
2018-02-23T06:46:44.234Z,1003.82
2018-02-23T06:47:24.796Z,1003.87
2018-02-23T06:48:05.354Z,1003.85
2018-02-23T06:48:45.904Z,1003.81
2018-02-23T06:49:26.502Z,1003.94
2018-02-23T06:50:07.057Z,1003.91
2018-02-23T06:50:47.679Z,1003.88
2018-02-23T06:51:28.234Z,1003.81
2018-02-23T06:52:08.780Z,1003.82
2018-02-23T06:52:49.338Z,1003.92
2018-02-23T06:53:29.902Z,1003.85
2018-02-23T06:54:10.463Z,1003.84
2018-02-23T06:54:51.034Z,1003.83
2018-02-23T06:55:31.591Z,1003.85
2018-02-23T06:56:12.142Z,1003.83
2018-02-23T06:56:52.698Z,1003.81
2018-02-23T06:57:33.262Z,1003.89
2018-02-23T06:58:13.863Z,1003.85
2018-02-23T06:58:54.426Z,1003.8
2018-02-23T06:59:35.002Z,1003.81
2018-02-23T07:00:15.556Z,1003.84
2018-02-23T07:00:56.124Z,1003.82
2018-02-23T07:01:36.692Z,1003.92
2018-02-23T07:02:17.256Z,1004.03
2018-02-23T07:02:57.831Z,1003.94
2018-02-23T07:03:38.374Z,1003.94
2018-02-23T07:04:18.923Z,1003.97
2018-02-23T07:04:59.504Z,1003.95
2018-02-23T07:05:40.078Z,1003.98
2018-02-23T07:06:20.631Z,1003.95
2018-02-23T07:07:01.176Z,1003.95
2018-02-23T07:07:41.746Z,1004
2018-02-23T07:08:22.313Z,1004.05
2018-02-23T07:09:02.870Z,1004.03
2018-02-23T07:09:43.441Z,1003.94
2018-02-23T07:10:24.116Z,1004.04
2018-02-23T07:11:04.729Z,1003.97
2018-02-23T07:11:45.215Z,1004.02
2018-02-23T07:12:25.773Z,1004.01
2018-02-23T07:13:06.323Z,1003.99
2018-02-23T07:13:46.916Z,1004.04
2018-02-23T07:14:27.472Z,1003.97
2018-02-23T07:15:08.051Z,1004.03
2018-02-23T07:15:48.633Z,1004.03
2018-02-23T07:16:29.248Z,1004.11
2018-02-23T07:17:09.767Z,1004.03
2018-02-23T07:17:50.318Z,1004.05
2018-02-23T07:18:30.892Z,1004.05
2018-02-23T07:19:11.445Z,1004.21
2018-02-23T07:19:52.024Z,1003.91
2018-02-23T07:20:32.589Z,1004
2018-02-23T07:21:13.143Z,1004.03
2018-02-23T07:21:53.711Z,1004.04
2018-02-23T07:22:34.273Z,1004.02
2018-02-23T07:23:14.832Z,1004.19
2018-02-23T07:23:55.402Z,1004.09
2018-02-23T07:24:35.968Z,1004.09
2018-02-23T07:25:18.038Z,1004.04
2018-02-23T07:25:58.583Z,1004.12
2018-02-23T07:26:39.338Z,1004.13
2018-02-23T07:27:19.904Z,1004.19
2018-02-23T07:28:00.503Z,1004.17
2018-02-23T07:28:41.046Z,1004.15
2018-02-23T07:29:21.635Z,1004.21
2018-02-23T07:30:02.272Z,1004.21
2018-02-23T07:30:42.830Z,1004.09
2018-02-23T07:31:23.399Z,1004.2
2018-02-23T07:32:03.957Z,1004.13
2018-02-23T07:32:44.506Z,1004.13
2018-02-23T07:33:25.071Z,1004.09
2018-02-23T07:34:05.637Z,1004.1
2018-02-23T07:34:46.209Z,1004.12
2018-02-23T07:35:26.772Z,1004.12
2018-02-23T07:36:07.348Z,1004.14
2018-02-23T07:36:47.895Z,1004.15
2018-02-23T07:37:28.441Z,1004.23
2018-02-23T07:38:08.982Z,1004.09
2018-02-23T07:38:49.546Z,1004.13
2018-02-23T07:39:30.181Z,1004.16
2018-02-23T07:40:10.688Z,1004.18
2018-02-23T07:40:51.314Z,1004.16
2018-02-23T07:41:31.888Z,1004.11
2018-02-23T07:42:12.455Z,1004.2
2018-02-23T07:42:53.005Z,1004.22
2018-02-23T07:43:33.542Z,1004.2
2018-02-23T07:44:14.114Z,1004.28
2018-02-23T07:44:54.682Z,1004.21
2018-02-23T07:45:35.282Z,1004.17
2018-02-23T07:46:15.845Z,1004.22
2018-02-23T07:46:56.445Z,1004.31
2018-02-23T07:47:37.003Z,1004.28
2018-02-23T07:48:17.557Z,1004.24
2018-02-23T07:48:58.104Z,1004.38
2018-02-23T07:49:38.642Z,1004.25
2018-02-23T07:50:19.195Z,1004.46
2018-02-23T07:50:59.911Z,1004.29
2018-02-23T07:51:40.489Z,1004.26
2018-02-23T07:52:21.526Z,1004.26
2018-02-23T07:53:02.047Z,1004.28
2018-02-23T07:53:42.610Z,1004.47
2018-02-23T07:54:23.177Z,1004.4
2018-02-23T07:55:03.747Z,1004.34
2018-02-23T07:55:44.301Z,1004.4
2018-02-23T07:56:24.870Z,1004.37
2018-02-23T07:57:05.486Z,1004.3
2018-02-23T07:57:46.054Z,1004.4
2018-02-23T07:58:26.628Z,1004.35
2018-02-23T07:59:07.181Z,1004.31
2018-02-23T07:59:47.730Z,1004.42
2018-02-23T08:00:28.271Z,1004.29
2018-02-23T08:01:08.843Z,1004.41
2018-02-23T08:01:49.378Z,1004.42
2018-02-23T08:02:29.922Z,1004.38
2018-02-23T08:03:10.483Z,1004.39
2018-02-23T08:03:51.048Z,1004.39
2018-02-23T08:04:31.634Z,1004.43
2018-02-23T08:05:12.200Z,1004.4
2018-02-23T08:05:52.762Z,1004.44
2018-02-23T08:06:33.334Z,1004.47
2018-02-23T08:07:13.888Z,1004.39
2018-02-23T08:07:54.478Z,1004.36
2018-02-23T08:08:35.047Z,1004.52
2018-02-23T08:09:15.618Z,1004.44
2018-02-23T08:09:56.177Z,1004.37
2018-02-23T08:10:36.718Z,1004.44
2018-02-23T08:11:17.263Z,1004.39
2018-02-23T08:11:57.830Z,1004.36
2018-02-23T08:12:38.399Z,1004.36
2018-02-23T08:13:18.946Z,1004.38
2018-02-23T08:13:59.499Z,1004.34
2018-02-23T08:14:40.078Z,1004.43
2018-02-23T08:15:21.684Z,1004.36